Time;durP1;ratioP1;P1;durP2;ratioP2;P2;SDS_P1;SDS_P2;PMS_P1;PMS_P2;Temp;Humidity;BMP_temperature;BMP_pressure;BME280_temperature;BME280_humidity;BME280_pressure;Samples;Min_cycle;Max_cycle;Signal;HPM_P1;HPM_P2
2020/12/11 00:03:54;;;;;;;145.60;59.90;;;;;;;-0.09;80.59;97888.38;3608481;82;21497;-78
2020/12/11 00:08:59;;;;;;;150.20;60.00;;;;;;;-0.18;80.62;97882.73;3543738;83;21061;-77
2020/12/11 00:14:01;;;;;;;136.07;57.50;;;;;;;-0.26;80.76;97888.39;3543922;83;21058;-78
2020/12/11 00:19:03;;;;;;;149.23;61.13;;;;;;;-0.33;80.75;97896.97;3657189;81;21037;-78
2020/12/11 00:24:05;;;;;;;128.27;50.63;;;;;;;-0.32;81.27;97902.48;3657231;81;21047;-77
2020/12/11 00:29:08;;;;;;;117.67;47.70;;;;;;;-0.33;81.03;97890.38;3546565;81;21039;-78
2020/12/11 00:34:10;;;;;;;116.60;47.20;;;;;;;-0.27;81.38;97895.47;3532114;84;21079;-77
2020/12/11 00:39:12;;;;;;;99.87;42.47;;;;;;;-0.19;81.42;97883.75;3532203;84;21011;-78
2020/12/11 00:44:16;;;;;;;102.53;42.10;;;;;;;-0.17;81.24;97898.78;3532238;84;21003;-77
2020/12/11 00:49:18;;;;;;;95.60;40.00;;;;;;;-0.22;80.76;97903.98;3550865;81;21039;-78
2020/12/11 00:54:21;;;;;;;85.63;37.30;;;;;;;-0.27;80.84;97906.52;3657282;81;21183;-78
2020/12/11 00:59:24;;;;;;;97.23;39.17;;;;;;;-0.31;80.86;97902.77;3657164;81;20996;-77
2020/12/11 01:04:26;;;;;;;92.93;38.00;;;;;;;-0.33;80.89;97906.17;3657297;81;21063;-77
2020/12/11 01:09:28;;;;;;;89.97;37.83;;;;;;;-0.29;81.02;97908.61;3657207;81;21444;-77
2020/12/11 01:14:30;;;;;;;84.30;35.87;;;;;;;-0.26;80.99;97908.92;3657366;81;21056;-77
2020/12/11 01:19:32;;;;;;;84.10;35.03;;;;;;;-0.23;81.08;97903.17;3608620;82;21038;-78
2020/12/11 01:24:34;;;;;;;90.40;39.87;;;;;;;-0.18;81.13;97909.05;3543859;83;21022;-78
2020/12/11 01:29:35;;;;;;;83.97;36.37;;;;;;;-0.20;80.78;97906.66;3488133;83;21055;-78
2020/12/11 01:34:37;;;;;;;89.03;38.33;;;;;;;-0.21;80.82;97905.06;3540679;83;21000;-78
2020/12/11 01:39:39;;;;;;;80.53;34.47;;;;;;;-0.19;80.96;97906.13;3540711;83;21471;-78
2020/12/11 01:44:53;;;;;;;81.37;33.97;;;;;;;-0.26;80.69;97901.02;3540658;82;21035;-78
2020/12/11 01:49:56;;;;;;;96.27;42.83;;;;;;;-0.29;80.88;97893.61;3495618;83;21089;-78
2020/12/11 01:54:58;;;;;;;85.47;35.43;;;;;;;-0.34;80.80;97898.78;3657659;81;20976;-78
2020/12/11 02:00:05;;;;;;;68.23;31.87;;;;;;;-0.44;80.75;97890.73;3657203;81;21063;-78
2020/12/11 02:05:09;;;;;;;67.23;30.87;;;;;;;-0.45;80.91;97899.13;3608440;82;21543;-78
2020/12/11 02:10:11;;;;;;;64.47;29.07;;;;;;;-0.45;81.03;97900.44;3657038;81;21044;-78
2020/12/11 02:15:13;;;;;;;71.03;33.53;;;;;;;-0.45;80.99;97887.81;3657049;81;21015;-77
2020/12/11 02:20:15;;;;;;;69.97;32.97;;;;;;;-0.49;80.80;97893.27;3657206;81;21677;-77
2020/12/11 02:25:17;;;;;;;78.43;33.90;;;;;;;-0.50;81.04;97883.77;3657414;81;20991;-77
2020/12/11 02:30:20;;;;;;;83.37;36.00;;;;;;;-0.46;80.98;97887.02;3542795;81;21051;-76
2020/12/11 02:35:22;;;;;;;72.87;32.53;;;;;;;-0.45;81.06;97878.07;3532054;84;21495;-77
2020/12/11 02:40:24;;;;;;;62.57;29.47;;;;;;;-0.46;80.68;97884.89;3532153;84;21035;-77
2020/12/11 02:45:26;;;;;;;84.10;36.77;;;;;;;-0.44;80.91;97885.47;3531998;82;21074;-77
2020/12/11 02:50:28;;;;;;;86.63;36.77;;;;;;;-0.41;80.92;97888.93;3580186;81;21444;-76
2020/12/11 02:55:30;;;;;;;64.30;31.67;;;;;;;-0.33;80.89;97881.17;3657024;81;21027;-77
2020/12/11 03:00:32;;;;;;;75.17;33.90;;;;;;;-0.30;80.86;97877.53;3656974;81;21035;-76
2020/12/11 03:05:35;;;;;;;69.23;31.43;;;;;;;-0.29;80.76;97876.50;3657041;81;21035;-77
2020/12/11 03:10:38;;;;;;;65.60;31.57;;;;;;;-0.26;80.79;97869.96;3608134;82;20994;-77
2020/12/11 03:15:40;;;;;;;80.50;36.73;;;;;;;-0.26;80.74;97868.65;3608188;82;21350;-77
2020/12/11 03:20:42;;;;;;;86.47;35.53;;;;;;;-0.31;80.54;97863.30;3657067;81;21015;-77
2020/12/11 03:25:44;;;;;;;76.63;34.13;;;;;;;-0.30;80.82;97857.00;3656935;81;21000;-77
2020/12/11 03:30:46;;;;;;;88.23;38.43;;;;;;;-0.25;80.92;97859.19;3542103;81;21015;-76
2020/12/11 03:35:49;;;;;;;96.87;42.20;;;;;;;-0.24;80.93;97863.42;3532308;84;21043;-76
2020/12/11 03:40:51;;;;;;;91.70;40.00;;;;;;;-0.22;80.93;97857.92;3532243;84;21444;-77
2020/12/11 03:45:54;;;;;;;91.80;38.87;;;;;;;-0.19;80.99;97857.44;3537451;82;22063;-76
2020/12/11 03:50:56;;;;;;;77.47;36.23;;;;;;;-0.19;80.86;97866.64;3597372;81;21550;-77
2020/12/11 03:55:58;;;;;;;98.67;41.37;;;;;;;-0.19;80.85;97868.75;3662880;81;21035;-77
2020/12/11 04:01:00;;;;;;;87.27;38.07;;;;;;;-0.18;80.88;97870.88;3662934;81;21019;-77
2020/12/11 04:06:09;;;;;;;104.07;43.40;;;;;;;-0.16;80.74;97864.05;3662845;81;21494;-77
2020/12/11 04:11:14;;;;;;;85.27;39.67;;;;;;;-0.13;80.86;97863.57;3658024;81;21022;-77
2020/12/11 04:16:17;;;;;;;105.87;44.67;;;;;;;-0.12;80.89;97870.44;3658424;81;21455;-77
2020/12/11 04:21:19;;;;;;;89.67;39.27;;;;;;;-0.12;81.01;97865.17;3608405;82;21078;-76
2020/12/11 04:26:21;;;;;;;96.57;41.70;;;;;;;-0.08;80.92;97868.92;3642019;81;21051;-76
2020/12/11 04:31:23;;;;;;;95.83;43.00;;;;;;;-0.05;80.93;97875.02;3532165;84;21031;-77
2020/12/11 04:36:26;;;;;;;85.60;40.10;;;;;;;-0.01;81.08;97878.76;3532234;84;21027;-77
2020/12/11 04:41:30;;;;;;;95.07;40.87;;;;;;;0.05;81.01;97882.27;3532334;83;21388;-76
2020/12/11 04:46:34;;;;;;;107.27;44.97;;;;;;;0.11;80.97;97868.12;3532220;82;21015;-77
2020/12/11 04:51:48;;;;;;;106.23;46.03;;;;;;;0.14;80.90;97868.94;3608754;81;21382;-77
2020/12/11 04:56:51;;;;;;;88.97;38.73;;;;;;;0.15;80.94;97873.18;3608060;82;21066;-76
2020/12/11 05:01:59;;;;;;;91.77;41.23;;;;;;;0.19;80.89;97876.14;3608249;82;21041;-78
2020/12/11 05:07:01;;;;;;;90.97;42.20;;;;;;;0.19;80.85;97880.09;3657170;81;21047;-77
2020/12/11 05:12:14;;;;;;;89.90;41.43;;;;;;;0.24;81.14;97884.09;3657248;81;21003;-77
2020/12/11 05:17:16;;;;;;;96.30;42.83;;;;;;;0.28;81.01;97883.88;3608325;82;20983;-77
2020/12/11 05:22:19;;;;;;;90.47;42.00;;;;;;;0.29;80.76;97892.86;3543857;83;21042;-78
2020/12/11 05:27:44;;;;;;;78.93;37.37;;;;;;;0.31;80.95;97888.69;3576649;82;20992;-76
2020/12/11 05:32:56;;;;;;;90.70;43.63;;;;;;;0.32;80.86;97886.31;3540885;83;21479;-77
2020/12/11 05:38:04;;;;;;;101.00;45.57;;;;;;;0.33;80.79;97891.87;3540561;83;21348;-77
2020/12/11 05:43:18;;;;;;;95.43;42.43;;;;;;;0.31;80.75;97900.55;3540464;82;21026;-76
2020/12/11 05:48:24;;;;;;;108.00;49.57;;;;;;;0.36;80.93;97911.66;3540536;83;21503;-77
2020/12/11 05:53:29;;;;;;;103.17;48.63;;;;;;;0.45;81.24;97912.33;3570906;82;20963;-77
2020/12/11 05:58:33;;;;;;;116.47;50.37;;;;;;;0.55;81.15;97916.14;3571753;83;21026;-77
2020/12/11 06:03:37;;;;;;;95.87;43.67;;;;;;;0.54;80.96;97911.91;3571779;82;21022;-77
2020/12/11 06:08:43;;;;;;;112.70;47.53;;;;;;;0.52;80.79;97904.25;3545121;83;21009;-77
2020/12/11 06:13:56;;;;;;;100.90;46.77;;;;;;;0.52;80.80;97902.93;3571924;83;21031;-77
2020/12/11 06:19:02;;;;;;;117.30;51.30;;;;;;;0.52;80.75;97897.66;3525696;83;21051;-77
2020/12/11 06:24:27;;;;;;;113.47;50.73;;;;;;;0.57;81.20;97889.80;3525779;83;21025;-77
2020/12/11 06:29:33;;;;;;;115.33;52.90;;;;;;;0.58;80.85;97886.66;3531011;82;20959;-77
2020/12/11 06:34:37;;;;;;;106.43;49.67;;;;;;;0.68;81.14;97881.50;3532212;84;21043;-78
2020/12/11 06:39:46;;;;;;;111.40;50.20;;;;;;;0.72;81.22;97879.97;3538829;83;21538;-77
2020/12/11 06:44:48;;;;;;;130.22;56.92;;;;;;;0.78;81.23;97868.95;3562187;80;21127;-77
2020/12/11 06:50:06;;;;;;;128.77;59.00;;;;;;;0.80;80.89;97873.48;3597391;81;21027;-77
2020/12/11 06:55:08;;;;;;;92.57;45.73;;;;;;;0.82;81.12;97875.33;3563380;82;21063;-76
2020/12/11 07:00:29;;;;;;;122.33;56.40;;;;;;;0.85;81.11;97884.88;3593613;82;21090;-77
2020/12/11 07:05:33;;;;;;;116.27;54.03;;;;;;;0.91;81.25;97882.28;3590122;80;21071;-78
2020/12/11 07:10:36;;;;;;;115.40;56.90;;;;;;;0.90;80.74;97881.49;3593088;80;21015;-77
2020/12/11 07:15:38;;;;;;;122.90;61.60;;;;;;;0.84;80.76;97875.90;3600438;80;20999;-77
2020/12/11 07:20:53;;;;;;;115.63;52.27;;;;;;;0.94;81.23;97889.19;3596499;80;21047;-78
2020/12/11 07:25:56;;;;;;;94.37;45.30;;;;;;;0.96;80.90;97881.81;3598340;80;21051;-77
2020/12/11 07:30:59;;;;;;;107.63;54.77;;;;;;;1.05;81.06;97886.14;3598720;81;21043;-76
2020/12/11 07:36:04;;;;;;;95.03;49.47;;;;;;;1.10;80.91;97887.50;3570142;81;21031;-77
2020/12/11 07:41:07;;;;;;;126.60;58.57;;;;;;;1.13;80.83;97896.23;3592541;80;21066;-77
2020/12/11 07:46:10;;;;;;;134.80;62.83;;;;;;;1.12;80.74;97897.30;3592077;81;21055;-77
2020/12/11 07:51:12;;;;;;;104.23;50.90;;;;;;;1.15;80.95;97892.83;3600942;80;21011;-77
2020/12/11 07:56:15;;;;;;;104.47;53.17;;;;;;;1.27;80.90;97887.39;3592385;81;21063;-78
2020/12/11 08:01:17;;;;;;;164.87;75.70;;;;;;;1.31;80.88;97885.07;3608901;81;21542;-78
2020/12/11 08:06:20;;;;;;;137.50;62.47;;;;;;;1.37;81.06;97877.46;3612953;81;21004;-78
2020/12/11 08:11:28;;;;;;;162.27;79.03;;;;;;;1.52;81.13;97871.53;3612940;81;21055;-76
2020/12/11 08:16:30;;;;;;;139.13;62.63;;;;;;;1.64;80.82;97868.73;3584957;81;21004;-76
2020/12/11 08:21:33;;;;;;;101.13;50.07;;;;;;;1.60;80.46;97867.11;3614534;81;21063;-76
2020/12/11 08:26:38;;;;;;;98.80;51.03;;;;;;;1.50;80.49;97869.68;3593372;80;21023;-75
2020/12/11 08:31:43;;;;;;;105.47;52.03;;;;;;;1.48;80.51;97867.80;3543049;82;21047;-78
2020/12/11 08:36:47;;;;;;;100.37;51.60;;;;;;;1.48;80.75;97877.85;3597693;81;21606;-74
2020/12/11 08:52:28;;;;;;;121.63;58.13;;;;;;;1.69;80.63;97866.93;3728768;78;20966;-75
2020/12/11 08:57:32;;;;;;;104.87;49.17;;;;;;;1.77;80.73;97862.23;3718893;78;21661;-75
2020/12/11 09:02:33;;;;;;;126.77;58.77;;;;;;;1.84;80.60;97850.92;3726508;78;21490;-75
2020/12/11 09:07:36;;;;;;;118.30;59.63;;;;;;;1.88;80.62;97852.00;3570441;80;21098;-76
2020/12/11 09:12:38;;;;;;;124.30;59.97;;;;;;;1.96;80.55;97858.64;3659131;79;21338;-75
2020/12/11 09:17:41;;;;;;;96.17;49.00;;;;;;;2.12;80.84;97860.88;3642668;80;21035;-75
2020/12/11 09:22:43;;;;;;;109.93;55.57;;;;;;;2.26;80.41;97862.54;3645364;80;21047;-77
2020/12/11 09:27:46;;;;;;;114.97;65.00;;;;;;;2.62;80.26;97861.39;3640022;80;21012;-77
2020/12/11 09:32:58;;;;;;;107.47;53.13;;;;;;;2.73;80.00;97852.44;3660920;80;21032;-77
2020/12/11 09:37:58;;;;;;;;;;;;;;;2.73;80.00;97852.44;3659982;80;21048;-77
2020/12/11 09:58:29;;;;;;;117.13;59.37;;;;;;;2.80;79.22;97824.40;3607273;80;21516;-77
2020/12/11 10:03:35;;;;;;;126.23;65.27;;;;;;;2.73;79.20;97822.81;3637471;80;21481;-76
2020/12/11 10:08:36;;;;;;;132.17;66.53;;;;;;;2.68;79.12;97812.74;3616811;80;21142;-77
2020/12/11 10:13:42;;;;;;;111.93;57.03;;;;;;;2.62;79.32;97811.94;3612491;81;21019;-77
2020/12/11 10:18:42;;;;;;;128.77;63.53;;;;;;;2.69;79.40;97803.77;3606061;81;21329;-78
2020/12/11 10:23:44;;;;;;;118.57;62.00;;;;;;;2.83;79.66;97806.71;3626969;81;21046;-76
2020/12/11 10:28:47;;;;;;;116.03;59.70;;;;;;;3.00;79.65;97791.92;3601555;81;21250;-77
2020/12/11 10:33:49;;;;;;;111.27;58.03;;;;;;;3.10;79.45;97796.43;3590041;81;21039;-77
2020/12/11 10:38:51;;;;;;;122.80;65.63;;;;;;;3.19;79.47;97779.77;3615973;81;21058;-77
2020/12/11 10:43:54;;;;;;;102.60;52.57;;;;;;;3.30;79.44;97779.75;3590700;81;21022;-78
2020/12/11 10:48:56;;;;;;;113.63;55.60;;;;;;;3.43;79.43;97768.11;3615157;81;21352;-77
2020/12/11 10:53:59;;;;;;;107.13;56.73;;;;;;;3.54;79.26;97776.84;3608553;81;21002;-78
2020/12/11 10:59:02;;;;;;;105.07;55.27;;;;;;;3.63;79.51;97773.11;3630715;81;21631;-78
2020/12/11 11:04:07;;;;;;;120.07;62.13;;;;;;;3.67;79.16;97762.80;3606353;82;21023;-78
2020/12/11 11:09:17;;;;;;;127.00;66.90;;;;;;;3.67;79.35;97758.28;3606900;81;21771;-78
2020/12/11 11:29:35;;;;;;;144.03;72.67;;;;;;;3.70;79.48;97737.09;3643313;80;21042;-78
2020/12/11 11:34:37;;;;;;;136.87;67.13;;;;;;;3.63;79.36;97726.77;3638705;80;21499;-78
2020/12/11 11:39:39;;;;;;;150.17;76.07;;;;;;;3.65;79.92;97720.69;3670414;81;21031;-79
2020/12/11 11:44:54;;;;;;;123.10;62.47;;;;;;;3.82;80.23;97714.27;3619837;81;21067;-80
2020/12/11 11:54:56;;;;;;;88.17;44.03;;;;;;;3.97;80.38;97712.10;3650844;81;21016;-78
2020/12/11 11:59:59;;;;;;;55.67;31.23;;;;;;;4.03;80.08;97703.86;3599752;81;21013;-80
2020/12/11 12:05:05;;;;;;;48.03;25.83;;;;;;;4.17;79.99;97700.61;3589416;82;21058;-79
2020/12/11 12:10:09;;;;;;;46.73;25.00;;;;;;;4.34;80.35;97709.02;3616641;81;21395;-80
2020/12/11 12:15:16;;;;;;;49.03;26.97;;;;;;;4.48;79.96;97698.60;3592448;81;21599;-79
2020/12/11 12:20:30;;;;;;;55.40;30.23;;;;;;;4.59;79.89;97697.47;3589529;81;21026;-81
2020/12/11 12:30:43;;;;;;;45.53;24.97;;;;;;;4.74;79.08;97685.97;3671662;80;21068;-80
2020/12/11 12:46:31;;;;;;;55.07;30.87;;;;;;;4.77;78.66;97668.16;3621703;80;21048;-80
2020/12/11 12:51:33;;;;;;;50.90;27.60;;;;;;;4.75;78.21;97666.31;3601477;80;21036;-81
2020/12/11 12:56:44;;;;;;;42.27;23.80;;;;;;;4.72;77.91;97658.91;3650769;80;21452;-81
2020/12/11 13:02:08;;;;;;;31.67;17.17;;;;;;;4.74;78.10;97652.00;3605342;81;21083;-81
2020/12/11 13:06:54;;;;;;;43.43;21.43;;;;;;;4.78;77.97;97652.51;3577989;81;21062;-81
2020/12/11 13:11:57;;;;;;;36.20;19.87;;;;;;;4.76;77.26;97644.56;3595299;81;21448;-81
2020/12/11 13:17:04;;;;;;;77.57;39.10;;;;;;;4.60;76.66;97631.42;3634162;81;21028;-82
2020/12/11 13:27:31;;;;;;;70.20;37.10;;;;;;;4.18;76.46;97618.70;3748724;77;27320;-80
2020/12/11 13:32:33;;;;;;;64.43;35.87;;;;;;;3.86;76.58;97626.05;3686568;80;20985;-80
2020/12/11 13:37:36;;;;;;;68.17;38.13;;;;;;;3.65;76.77;97628.50;3660564;80;21016;-80
2020/12/11 13:42:38;;;;;;;63.50;33.03;;;;;;;3.41;76.80;97625.95;3668676;80;20944;-80
2020/12/11 13:47:42;;;;;;;61.67;32.07;;;;;;;3.20;77.03;97624.39;3657531;78;21010;-80
2020/12/11 13:52:44;;;;;;;65.03;35.13;;;;;;;3.03;77.22;97624.70;3614459;81;21087;-81
2020/12/11 13:57:46;;;;;;;56.83;29.53;;;;;;;2.91;77.40;97617.83;3627097;81;21523;-78
2020/12/11 14:02:48;;;;;;;55.47;31.17;;;;;;;2.79;77.59;97609.92;3630306;81;21150;-78
2020/12/11 14:07:50;;;;;;;56.43;29.53;;;;;;;2.70;77.84;97601.70;3632890;81;21048;-78
2020/12/11 14:12:52;;;;;;;65.27;34.03;;;;;;;2.38;77.94;97571.06;3605034;81;21060;-80
2020/12/11 14:18:16;;;;;;;56.33;31.97;;;;;;;2.38;77.94;97571.06;3565074;83;21059;-80
2020/12/11 14:23:14;;;;;;;56.18;31.52;;;;;;;2.33;77.69;97591.66;3494157;84;21048;-79
2020/12/11 14:28:16;;;;;;;54.33;30.73;;;;;;;2.02;77.96;97600.86;3481266;83;21020;-79
2020/12/11 14:33:19;;;;;;;54.03;29.77;;;;;;;2.02;77.96;97600.86;3626074;80;21013;-79
2020/12/11 14:43:42;;;;;;;47.00;23.57;;;;;;;1.75;78.32;97598.94;3587742;82;21009;-79
2020/12/11 14:48:46;;;;;;;50.43;26.03;;;;;;;1.62;78.42;97602.86;3597963;81;21413;-79
2020/12/11 14:53:48;;;;;;;54.40;29.13;;;;;;;1.50;78.51;97601.23;3616857;82;21076;-79
2020/12/11 14:58:51;;;;;;;60.97;30.87;;;;;;;1.40;78.74;97599.88;3611092;80;21037;-80
2020/12/11 15:03:53;;;;;;;63.63;33.67;;;;;;;1.31;79.00;97604.05;3529895;83;21052;-80
2020/12/11 15:08:58;;;;;;;58.87;30.17;;;;;;;1.22;79.08;97589.75;3595987;82;21508;-78
2020/12/11 15:14:01;;;;;;;59.13;31.07;;;;;;;1.11;79.30;97587.59;3584915;81;21042;-80
2020/12/11 15:19:03;;;;;;;67.97;35.60;;;;;;;0.98;79.25;97579.09;3607981;82;21009;-79
2020/12/11 15:24:05;;;;;;;59.73;27.80;;;;;;;0.88;79.58;97577.69;3606900;82;21057;-80
2020/12/11 15:29:07;;;;;;;62.67;30.17;;;;;;;0.77;79.58;97574.72;3596339;81;20940;-79
2020/12/11 15:34:09;;;;;;;66.57;35.50;;;;;;;0.65;79.65;97571.75;3612036;82;21039;-79
2020/12/11 15:39:14;;;;;;;65.57;31.43;;;;;;;0.49;79.60;97565.58;3611505;80;20941;-80
2020/12/11 15:44:15;;;;;;;74.00;34.67;;;;;;;0.40;79.93;97564.45;3613534;80;21037;-80
2020/12/11 15:49:18;;;;;;;58.53;29.53;;;;;;;0.30;80.07;97561.74;3591905;82;21043;-80
2020/12/11 15:54:20;;;;;;;59.07;28.27;;;;;;;0.20;80.05;97557.69;3611788;82;21044;-80
2020/12/11 15:59:22;;;;;;;51.40;26.20;;;;;;;0.10;80.33;97553.94;3600783;82;21438;-80
2020/12/11 16:04:24;;;;;;;52.93;22.77;;;;;;;0.01;80.60;97544.11;3609348;81;21296;-79
2020/12/11 16:09:27;;;;;;;54.00;24.37;;;;;;;-0.08;80.62;97547.72;3596851;82;21020;-79
2020/12/11 16:14:29;;;;;;;52.47;24.97;;;;;;;-0.16;80.78;97541.05;3600158;82;22064;-80
2020/12/11 16:19:31;;;;;;;54.73;25.27;;;;;;;-0.27;80.87;97540.68;3613933;82;21010;-81
2020/12/11 16:24:33;;;;;;;58.20;27.83;;;;;;;-0.37;81.29;97542.69;3588792;82;20972;-80
2020/12/11 16:29:35;;;;;;;54.57;26.60;;;;;;;-0.42;81.35;97539.98;3613131;82;21582;-81
2020/12/11 16:34:37;;;;;;;42.53;22.23;;;;;;;-0.47;81.48;97540.73;3462537;85;21002;-80
2020/12/11 16:39:42;;;;;;;46.93;22.87;;;;;;;-0.46;81.68;97544.16;3599875;82;21053;-80
2020/12/11 16:49:57;;;;;;;40.23;19.30;;;;;;;-0.28;82.10;97535.14;3557119;82;20993;-80
2020/12/11 16:55:01;;;;;;;50.27;23.20;;;;;;;-0.19;82.29;97537.61;3619178;80;21373;-79
2020/12/11 17:00:15;;;;;;;47.07;21.70;;;;;;;-0.08;82.31;97532.70;3600470;82;20975;-79
2020/12/11 17:10:37;;;;;;;40.57;17.37;;;;;;;0.11;82.47;97534.47;3602477;82;21045;-80
2020/12/11 17:15:42;;;;;;;53.47;23.47;;;;;;;0.13;82.24;97536.84;3601598;82;21037;-79
2020/12/11 17:20:46;;;;;;;38.97;19.30;;;;;;;0.16;82.29;97535.80;3605022;81;21005;-79
2020/12/11 17:25:50;;;;;;;48.80;23.80;;;;;;;0.17;82.07;97535.30;3594571;82;20997;-79
2020/12/11 17:31:04;;;;;;;48.23;22.30;;;;;;;0.17;82.08;97528.72;3579382;81;21497;-80
2020/12/11 17:35:59;;;;;;;55.50;26.90;;;;;;;0.15;82.19;97526.84;3609101;81;21417;-79
2020/12/11 17:41:02;;;;;;;49.37;23.33;;;;;;;0.07;82.12;97522.84;3608497;82;20914;-79
2020/12/11 17:46:04;;;;;;;48.33;22.03;;;;;;;0.01;82.51;97512.52;3609020;82;21068;-79
2020/12/11 17:51:06;;;;;;;50.40;24.43;;;;;;;0.01;82.62;97504.61;3606421;82;21055;-80
2020/12/11 17:56:08;;;;;;;52.00;25.60;;;;;;;-0.07;82.43;97504.53;3577794;82;21016;-80
2020/12/11 18:01:12;;;;;;;53.63;24.10;;;;;;;-0.13;82.62;97504.23;3609726;82;21506;-80
2020/12/11 18:06:18;;;;;;;54.90;26.07;;;;;;;-0.13;83.04;97505.55;3594548;82;21021;-81
2020/12/11 18:11:28;;;;;;;51.70;25.07;;;;;;;-0.09;82.96;97506.63;3587071;82;20956;-81
2020/12/11 18:16:40;;;;;;;53.67;26.37;;;;;;;0.04;83.04;97514.10;3724369;79;22759;-81
2020/12/11 18:21:47;;;;;;;46.77;21.50;;;;;;;0.06;83.15;97508.08;3695029;79;20985;-80
2020/12/11 18:26:47;;;;;;;50.73;24.83;;;;;;;0.10;83.02;97510.48;3699370;80;21008;-80
2020/12/11 18:31:53;;;;;;;56.67;26.43;;;;;;;0.18;83.07;97509.75;3709351;79;21373;-80
2020/12/11 18:36:56;;;;;;;50.00;25.27;;;;;;;0.19;82.92;97511.34;3687462;79;20981;-80
2020/12/11 18:42:02;;;;;;;56.57;27.50;;;;;;;0.24;82.87;97511.36;3613536;80;21005;-79
2020/12/11 18:47:03;;;;;;;59.30;28.47;;;;;;;0.27;82.88;97505.61;3610097;81;21047;-80
2020/12/11 18:52:05;;;;;;;40.10;19.97;;;;;;;0.22;82.80;97510.30;3689704;80;21060;-80
2020/12/11 18:57:09;;;;;;;43.43;20.70;;;;;;;0.24;82.83;97514.81;3696116;80;20973;-81
2020/12/11 19:02:11;;;;;;;39.07;20.57;;;;;;;0.24;82.74;97509.54;3695796;80;20984;-80
2020/12/11 19:07:13;;;;;;;46.73;21.50;;;;;;;0.27;82.71;97508.25;3668351;80;20969;-80
2020/12/11 19:12:17;;;;;;;38.77;19.73;;;;;;;0.21;82.60;97504.78;3697001;80;21052;-80
2020/12/11 19:17:19;;;;;;;44.30;22.30;;;;;;;0.15;82.50;97505.27;3664148;80;21015;-79
2020/12/11 19:22:22;;;;;;;36.07;18.07;;;;;;;0.14;82.62;97501.54;3704502;79;20996;-79
2020/12/11 19:27:24;;;;;;;35.83;18.30;;;;;;;0.11;82.61;97498.10;3692571;80;21033;-80
2020/12/11 19:32:27;;;;;;;43.63;21.10;;;;;;;0.09;82.55;97490.45;3664269;80;21008;-80
2020/12/11 19:37:29;;;;;;;40.17;18.37;;;;;;;0.10;82.64;97485.97;3546483;82;21044;-79
2020/12/11 19:42:32;;;;;;;40.17;19.90;;;;;;;0.10;82.52;97475.44;3713229;80;21586;-79
2020/12/11 19:47:34;;;;;;;41.10;20.93;;;;;;;0.07;82.48;97489.92;3657772;80;21023;-81
2020/12/11 19:52:40;;;;;;;38.53;18.83;;;;;;;0.00;82.18;97478.81;3556958;82;21015;-79
2020/12/11 19:57:42;;;;;;;40.97;19.00;;;;;;;-0.08;82.44;97472.69;3675903;80;20944;-81
2020/12/11 20:02:45;;;;;;;44.37;21.33;;;;;;;-0.12;82.56;97480.28;3676166;80;21028;-80
2020/12/11 20:12:49;;;;;;;46.97;21.27;;;;;;;-0.09;82.66;97467.93;3675655;80;20962;-79
2020/12/11 20:17:54;;;;;;;45.70;21.20;;;;;;;-0.09;82.72;97465.30;3611856;80;21015;-80
2020/12/11 20:22:56;;;;;;;51.77;26.63;;;;;;;-0.04;82.67;97460.61;3608140;81;21021;-79
2020/12/11 20:27:59;;;;;;;42.23;20.17;;;;;;;-0.02;82.78;97454.56;3632454;81;21048;-79
2020/12/11 20:33:01;;;;;;;54.30;25.50;;;;;;;-0.01;82.71;97454.30;3645115;81;20953;-79
2020/12/11 20:38:03;;;;;;;45.30;23.10;;;;;;;-0.01;82.72;97456.16;3609049;81;21044;-79
2020/12/11 20:43:07;;;;;;;40.83;19.77;;;;;;;0.04;82.72;97468.56;3606833;81;21059;-79
2020/12/11 20:48:10;;;;;;;50.70;23.77;;;;;;;0.06;82.62;97454.09;3619859;81;21024;-80
2020/12/11 20:53:12;;;;;;;47.47;20.40;;;;;;;0.10;82.93;97451.23;3622313;82;21088;-80
2020/12/11 20:58:14;;;;;;;46.43;21.70;;;;;;;0.10;82.71;97449.91;3616697;81;21016;-80
2020/12/11 21:03:17;;;;;;;44.37;21.40;;;;;;;0.11;82.78;97455.46;3644143;81;21008;-78
2020/12/11 21:08:20;;;;;;;38.40;17.67;;;;;;;0.11;82.74;97443.61;3572732;83;21343;-80
2020/12/11 21:13:25;;;;;;;42.97;19.13;;;;;;;0.11;82.78;97447.56;3573242;82;21286;-80
2020/12/11 21:18:27;;;;;;;48.17;22.03;;;;;;;0.13;82.79;97449.94;3585141;82;21024;-80
2020/12/11 21:23:30;;;;;;;52.13;22.50;;;;;;;0.08;82.59;97450.67;3544354;82;21015;-80
2020/12/11 21:28:32;;;;;;;46.57;21.70;;;;;;;0.12;82.79;97439.91;3527604;82;21001;-81
2020/12/11 21:38:55;;;;;;;38.47;18.63;;;;;;;0.14;82.60;97440.47;3540974;82;21064;-81
2020/12/11 21:43:58;;;;;;;38.57;18.07;;;;;;;0.14;82.88;97431.25;3555838;82;21063;-80
2020/12/11 21:49:01;;;;;;;30.77;14.33;;;;;;;0.18;82.77;97439.95;3571507;83;21393;-80
2020/12/11 21:54:02;;;;;;;47.57;21.40;;;;;;;0.16;82.74;97444.16;3528218;84;20997;-80
2020/12/11 21:59:04;;;;;;;36.43;16.03;;;;;;;0.18;82.69;97443.37;3523104;84;21060;-79
2020/12/11 22:04:06;;;;;;;41.87;19.03;;;;;;;0.18;82.69;97438.64;3599557;82;21031;-79
2020/12/11 22:09:08;;;;;;;37.77;16.90;;;;;;;0.10;82.68;97421.45;3599590;82;20985;-79
2020/12/11 22:14:11;;;;;;;41.90;19.20;;;;;;;0.04;82.74;97419.31;3596985;81;21071;-81
2020/12/11 22:19:14;;;;;;;42.10;19.40;;;;;;;-0.02;82.78;97420.33;3577404;81;20967;-79
2020/12/11 22:24:18;;;;;;;39.23;18.07;;;;;;;-0.05;82.93;97419.53;3610414;82;20994;-79
2020/12/11 22:29:20;;;;;;;39.00;18.43;;;;;;;-0.15;82.82;97404.45;3602713;81;20999;-79
2020/12/11 22:34:22;;;;;;;43.93;19.87;;;;;;;-0.25;82.95;97395.95;3593793;82;20940;-78
2020/12/11 22:39:24;;;;;;;47.43;19.83;;;;;;;-0.29;83.21;97410.66;3514491;82;21038;-79
2020/12/11 22:44:26;;;;;;;34.20;17.03;;;;;;;-0.30;83.28;97406.97;3593106;82;21035;-79
2020/12/11 22:49:28;;;;;;;33.97;15.83;;;;;;;-0.33;83.19;97413.52;3637004;80;20992;-79
2020/12/11 22:54:30;;;;;;;42.47;18.70;;;;;;;-0.36;83.28;97408.23;3589027;82;21036;-78
2020/12/11 22:59:32;;;;;;;35.33;16.10;;;;;;;-0.31;83.47;97411.95;3557615;82;21005;-79
2020/12/11 23:04:34;;;;;;;37.73;17.63;;;;;;;-0.29;83.49;97411.97;3551231;82;21424;-78
2020/12/11 23:09:36;;;;;;;36.57;18.70;;;;;;;-0.24;83.56;97409.39;3558727;83;21027;-79
2020/12/11 23:14:38;;;;;;;38.93;17.53;;;;;;;-0.23;83.48;97413.59;3595499;81;21019;-79
2020/12/11 23:19:40;;;;;;;38.97;16.83;;;;;;;-0.21;83.65;97408.89;3580452;80;20995;-79
2020/12/11 23:24:43;;;;;;;31.17;15.77;;;;;;;-0.20;83.47;97409.67;3573606;82;21073;-80
2020/12/11 23:29:46;;;;;;;35.90;15.70;;;;;;;-0.20;83.41;97410.98;3529400;84;21081;-78
2020/12/11 23:34:52;;;;;;;38.80;17.33;;;;;;;-0.21;83.54;97408.07;3599990;81;21050;-79
2020/12/11 23:39:54;;;;;;;37.90;17.00;;;;;;;-0.22;83.58;97420.98;3590645;82;21022;-78
2020/12/11 23:44:56;;;;;;;35.70;17.80;;;;;;;-0.20;83.49;97417.56;3613903;80;21463;-79
2020/12/11 23:49:59;;;;;;;39.30;17.90;;;;;;;-0.19;83.65;97410.73;3567339;80;21061;-79
2020/12/11 23:55:03;;;;;;;29.57;14.30;;;;;;;-0.19;83.80;97412.05;3510312;84;21034;-79
